AirNav   Air Wisconsin pilot careers
 
 1649 users online  

11NE Kaan Airport
Harrison, Nebraska, USA

GOING TO HARRISON?


FAA INFORMATION EFFECTIVE 20 JUNE 2019

Location

FAA Identifier: 11NE
Lat/Long: 42-26-32.8690N / 103-54-58.7770W
42-26.547817N / 103-54.979617W
42.4424636 / -103.9163269
(estimated)
Elevation: 4650 ft. / 1417 m (estimated)
Variation: 11E (1985)
From city: 15 miles S of HARRISON, NE
Time zone: UTC -6 (UTC -7 during Standard Time)
Zip code: 69346

Airport Operations

Airport use: CLOSED INDEFINITELY
Activation date: 11/1979
Control tower: no
ARTCC: DENVER CENTER
FSS: COLUMBUS FLIGHT SERVICE STATION
Attendance: UNATNDD
Wind indicator: no
Segmented circle: no

Nearby radio navigation aids

VOR radial/distance  VOR name  Freq  Var
TSTr242/27.6TOADSTOOL VOR/DME113.4013E
BFFr317/38.1SCOTTSBLUFF VORTAC112.6013E

 
NDB name  Hdg/Dist  Freq  Var  ID
TORRINGTON014/24.929311ETOR - --- .-.
CAMP GUERNSEY060/37.428011EGYZ --. -.-- --..

Airport Services

Runway Information

Runway 12/30

Dimensions: 2500 x 100 ft. / 762 x 30 m
Surface: turf
RUNWAY 12  RUNWAY 30
Traffic pattern: leftleft

Airport Ownership and Management from official FAA records

Ownership: Privately-owned
Owner: RICHARD KAAN
PO BOX 222
HOT SPRINGS, SD 57747
Phone 605-440-1007
Manager: RICHARD KAAN
PO BOX 222
HOT SPRINGS, SD 57747
Phone 605-440-1007

Airport Operational Statistics

Aircraft based on the field: 1
Single engine airplanes: 1
    

Additional Remarks

FOR CD CTC DENVER ARTCC AT 303-651-4257.
(ARPT STATUS) ARPT CLSD INDEFLY.

Instrument Procedures

There are no published instrument procedures at 11NE.

Some nearby airports with instrument procedures:

KTOR - Torrington Municipal Airport (25 nm SW)
KBFF - Western Nebraska Regional Airport/William B. Heilig Field (37 nm SE)
KGUR - Camp Guernsey Airport (38 nm W)
KCDR - Chadron Municipal Airport (43 nm NE)
KEAN - Phifer Airfield (51 nm SW)
 
Loc | Ops | Rwys | IFR | FBO | Links
Com | Nav | Svcs | Stats | Notes

Silverhawk Aviation, Inc.
AirBoss

 
Area around 11NE (Kaan Airport)
 
Road maps at: MapQuest Bing Google
 
Aerial photo
No photo
 
Sectional chart

 
Airport distance calculator
Flying to Kaan Airport? Find the distance to fly.

From to 11NE

Sunrise and sunset
Times for 24-Jun-2019
 Local
(UTC-6)
 Zulu
(UTC)
Morning civil twilight04:4510:45
Sunrise05:2011:20
Sunset20:3602:36
Evening civil twilight21:1103:11

Current date and time
Zulu (UTC)  24-Jun-2019 18:52:21
Local (UTC-6)  24-Jun-2019 12:52:21
 
METAR
KTOR 
25nm SW 
241753Z AUTO 33009KT 280V010 10SM FEW080 25/06 A2984 RMK AO2 SLP070 T02500061 10250 20072 57008
KBFF 
38nm SE 
241753Z AUTO 33007KT 10SM CLR 26/18 A2985 RMK AO2 SLP074 T02560178 10256 20072 58007
KGUR 
38nm W 
241758Z AUTO 00000KT 10SM SCT085 25/07 A2988 RMK AO2 SLP087 T02480065 10250 20081 57008 PNO $
KCDR 
43nm NE 
241753Z AUTO 20003KT 10SM CLR 23/12 A2981 RMK AO2 SLP086 T02280117 10228 20083 58007
TAF
KBFF 
38nm SE 
241725Z 2418/2518 30015G25KT P6SM SCT100 FM250100 06007KT P6SM SKC
KCDR 
43nm NE 
241725Z 2418/2518 29012G23KT P6SM SCT090 FM250200 VRB06KT P6SM SKC
NOTAMs
Click for the latest NOTAMs
NOTAMs are issued by the DoD/FAA and will open in a separate window not controlled by AirNav.

 

 
 

Would you like to see your business listed on this page?

 If your business provides an interesting product or service to pilots, flight crews, aircraft, or users of the Kaan Airport, you should consider listing it here.  To start the listing process, click on the button below
 
Add a business
 

Other Pages about Kaan Airport

Update a link
 
Copyright © AirNav, LLC. All rights reserved. Privacy Policy  Contact